sensor_id;sensor_type;location;lat;lon;timestamp;P1;durP1;ratioP1;P2;durP2;ratioP2
57465;SDS011;67033;44.984;20.068;2023-04-24T00:01:47;18.88;;;11.05;;
57465;SDS011;67033;44.984;20.068;2023-04-24T00:04:13;19.80;;;10.50;;
57465;SDS011;67033;44.984;20.068;2023-04-24T00:06:41;22.05;;;9.77;;
57465;SDS011;67033;44.984;20.068;2023-04-24T00:09:08;17.75;;;9.70;;
57465;SDS011;67033;44.984;20.068;2023-04-24T00:11:35;17.00;;;9.60;;
57465;SDS011;67033;44.984;20.068;2023-04-24T00:14:01;16.23;;;9.02;;
57465;SDS011;67033;44.984;20.068;2023-04-24T00:16:28;15.15;;;9.05;;
57465;SDS011;67033;44.984;20.068;2023-04-24T00:18:54;13.95;;;8.60;;
57465;SDS011;67033;44.984;20.068;2023-04-24T00:21:20;14.77;;;9.57;;
57465;SDS011;67033;44.984;20.068;2023-04-24T00:23:47;14.63;;;9.27;;
57465;SDS011;67033;44.984;20.068;2023-04-24T00:26:13;19.33;;;8.80;;
57465;SDS011;67033;44.984;20.068;2023-04-24T00:28:39;21.38;;;8.93;;
57465;SDS011;67033;44.984;20.068;2023-04-24T00:31:05;17.48;;;9.85;;
57465;SDS011;67033;44.984;20.068;2023-04-24T00:33:31;23.05;;;10.02;;
57465;SDS011;67033;44.984;20.068;2023-04-24T00:35:57;17.20;;;10.02;;
57465;SDS011;67033;44.984;20.068;2023-04-24T00:38:23;15.23;;;9.30;;
57465;SDS011;67033;44.984;20.068;2023-04-24T00:40:48;21.75;;;10.13;;
57465;SDS011;67033;44.984;20.068;2023-04-24T00:43:19;15.52;;;9.65;;
57465;SDS011;67033;44.984;20.068;2023-04-24T00:45:45;17.98;;;9.13;;
57465;SDS011;67033;44.984;20.068;2023-04-24T00:48:11;18.60;;;9.85;;
57465;SDS011;67033;44.984;20.068;2023-04-24T00:50:38;16.33;;;9.50;;
57465;SDS011;67033;44.984;20.068;2023-04-24T00:53:04;15.68;;;9.65;;
57465;SDS011;67033;44.984;20.068;2023-04-24T00:55:31;20.88;;;10.82;;
57465;SDS011;67033;44.984;20.068;2023-04-24T00:57:57;23.90;;;9.90;;
57465;SDS011;67033;44.984;20.068;2023-04-24T01:00:24;23.05;;;10.93;;
57465;SDS011;67033;44.984;20.068;2023-04-24T01:02:50;22.52;;;12.52;;
57465;SDS011;67033;44.984;20.068;2023-04-24T01:05:18;18.35;;;11.10;;
57465;SDS011;67033;44.984;20.068;2023-04-24T01:07:45;25.40;;;11.82;;
57465;SDS011;67033;44.984;20.068;2023-04-24T01:10:13;25.17;;;13.23;;
57465;SDS011;67033;44.984;20.068;2023-04-24T01:12:40;25.92;;;13.00;;
57465;SDS011;67033;44.984;20.068;2023-04-24T01:15:06;18.00;;;11.20;;
57465;SDS011;67033;44.984;20.068;2023-04-24T01:17:32;20.67;;;11.20;;
57465;SDS011;67033;44.984;20.068;2023-04-24T01:20:01;24.85;;;12.55;;
57465;SDS011;67033;44.984;20.068;2023-04-24T01:22:31;19.60;;;10.70;;
57465;SDS011;67033;44.984;20.068;2023-04-24T01:25:00;17.10;;;9.85;;
57465;SDS011;67033;44.984;20.068;2023-04-24T01:27:27;15.80;;;10.05;;
57465;SDS011;67033;44.984;20.068;2023-04-24T01:29:53;16.13;;;10.55;;
57465;SDS011;67033;44.984;20.068;2023-04-24T01:32:19;25.08;;;9.93;;
57465;SDS011;67033;44.984;20.068;2023-04-24T01:34:45;15.27;;;9.35;;
57465;SDS011;67033;44.984;20.068;2023-04-24T01:37:13;10.88;;;9.57;;
57465;SDS011;67033;44.984;20.068;2023-04-24T01:39:38;12.68;;;9.38;;
57465;SDS011;67033;44.984;20.068;2023-04-24T01:42:05;13.40;;;8.50;;
57465;SDS011;67033;44.984;20.068;2023-04-24T01:44:33;10.90;;;8.32;;
57465;SDS011;67033;44.984;20.068;2023-04-24T01:46:59;10.30;;;7.40;;
57465;SDS011;67033;44.984;20.068;2023-04-24T01:49:26;9.90;;;7.53;;
57465;SDS011;67033;44.984;20.068;2023-04-24T01:51:52;10.82;;;7.25;;
57465;SDS011;67033;44.984;20.068;2023-04-24T01:54:18;10.38;;;6.70;;
57465;SDS011;67033;44.984;20.068;2023-04-24T01:56:44;10.90;;;7.00;;
57465;SDS011;67033;44.984;20.068;2023-04-24T01:59:11;10.73;;;7.05;;
57465;SDS011;67033;44.984;20.068;2023-04-24T02:01:38;8.48;;;6.50;;
57465;SDS011;67033;44.984;20.068;2023-04-24T02:04:05;13.05;;;7.10;;
57465;SDS011;67033;44.984;20.068;2023-04-24T02:06:31;12.68;;;6.60;;
57465;SDS011;67033;44.984;20.068;2023-04-24T02:08:58;12.73;;;7.35;;
57465;SDS011;67033;44.984;20.068;2023-04-24T02:11:24;8.55;;;6.32;;
57465;SDS011;67033;44.984;20.068;2023-04-24T02:13:50;10.75;;;6.80;;
57465;SDS011;67033;44.984;20.068;2023-04-24T02:16:16;9.10;;;6.90;;
57465;SDS011;67033;44.984;20.068;2023-04-24T02:18:43;13.50;;;7.50;;
57465;SDS011;67033;44.984;20.068;2023-04-24T02:21:09;10.43;;;7.30;;
57465;SDS011;67033;44.984;20.068;2023-04-24T02:23:35;8.77;;;6.95;;
57465;SDS011;67033;44.984;20.068;2023-04-24T02:26:01;9.82;;;6.78;;
57465;SDS011;67033;44.984;20.068;2023-04-24T02:28:27;12.98;;;8.48;;
57465;SDS011;67033;44.984;20.068;2023-04-24T02:30:53;18.80;;;9.20;;
57465;SDS011;67033;44.984;20.068;2023-04-24T02:33:19;15.00;;;8.25;;
57465;SDS011;67033;44.984;20.068;2023-04-24T02:35:45;11.32;;;7.68;;
57465;SDS011;67033;44.984;20.068;2023-04-24T02:38:11;11.63;;;8.27;;
57465;SDS011;67033;44.984;20.068;2023-04-24T02:40:37;13.93;;;8.65;;
57465;SDS011;67033;44.984;20.068;2023-04-24T02:43:02;14.35;;;8.52;;
57465;SDS011;67033;44.984;20.068;2023-04-24T02:45:28;17.02;;;9.88;;
57465;SDS011;67033;44.984;20.068;2023-04-24T02:47:55;18.17;;;9.38;;
57465;SDS011;67033;44.984;20.068;2023-04-24T02:50:20;12.10;;;8.60;;
57465;SDS011;67033;44.984;20.068;2023-04-24T02:52:46;17.70;;;9.07;;
57465;SDS011;67033;44.984;20.068;2023-04-24T02:55:13;14.07;;;8.48;;
57465;SDS011;67033;44.984;20.068;2023-04-24T02:57:39;12.35;;;8.50;;
57465;SDS011;67033;44.984;20.068;2023-04-24T03:00:05;11.60;;;8.38;;
57465;SDS011;67033;44.984;20.068;2023-04-24T03:02:32;10.57;;;7.65;;
57465;SDS011;67033;44.984;20.068;2023-04-24T03:04:59;13.80;;;7.97;;
57465;SDS011;67033;44.984;20.068;2023-04-24T03:07:25;15.18;;;7.78;;
57465;SDS011;67033;44.984;20.068;2023-04-24T03:09:50;9.82;;;8.02;;
57465;SDS011;67033;44.984;20.068;2023-04-24T03:12:16;10.40;;;7.28;;
57465;SDS011;67033;44.984;20.068;2023-04-24T03:14:45;14.10;;;8.43;;
57465;SDS011;67033;44.984;20.068;2023-04-24T03:17:11;12.15;;;8.13;;
57465;SDS011;67033;44.984;20.068;2023-04-24T03:19:38;12.75;;;7.93;;
57465;SDS011;67033;44.984;20.068;2023-04-24T03:22:04;16.15;;;9.38;;
57465;SDS011;67033;44.984;20.068;2023-04-24T03:24:30;12.02;;;7.85;;
57465;SDS011;67033;44.984;20.068;2023-04-24T03:26:56;12.10;;;7.88;;
57465;SDS011;67033;44.984;20.068;2023-04-24T03:29:23;9.27;;;7.47;;
57465;SDS011;67033;44.984;20.068;2023-04-24T03:31:49;9.85;;;8.02;;
57465;SDS011;67033;44.984;20.068;2023-04-24T03:34:15;8.48;;;7.38;;
57465;SDS011;67033;44.984;20.068;2023-04-24T03:36:41;11.35;;;7.80;;
57465;SDS011;67033;44.984;20.068;2023-04-24T03:39:08;8.80;;;7.85;;
57465;SDS011;67033;44.984;20.068;2023-04-24T03:41:34;9.82;;;7.93;;
57465;SDS011;67033;44.984;20.068;2023-04-24T03:44:00;15.93;;;7.78;;
57465;SDS011;67033;44.984;20.068;2023-04-24T03:46:26;12.95;;;7.80;;
57465;SDS011;67033;44.984;20.068;2023-04-24T03:48:52;12.02;;;8.25;;
57465;SDS011;67033;44.984;20.068;2023-04-24T03:51:19;17.95;;;8.25;;
57465;SDS011;67033;44.984;20.068;2023-04-24T03:53:45;16.30;;;7.78;;
57465;SDS011;67033;44.984;20.068;2023-04-24T03:56:11;9.68;;;7.45;;
57465;SDS011;67033;44.984;20.068;2023-04-24T03:58:37;11.30;;;6.90;;
57465;SDS011;67033;44.984;20.068;2023-04-24T04:01:04;15.07;;;7.65;;
57465;SDS011;67033;44.984;20.068;2023-04-24T04:03:30;13.95;;;7.90;;
57465;SDS011;67033;44.984;20.068;2023-04-24T04:05:56;10.95;;;8.02;;
57465;SDS011;67033;44.984;20.068;2023-04-24T04:08:22;12.10;;;8.75;;
57465;SDS011;67033;44.984;20.068;2023-04-24T04:10:48;12.13;;;8.52;;
57465;SDS011;67033;44.984;20.068;2023-04-24T04:13:15;11.35;;;9.07;;
57465;SDS011;67033;44.984;20.068;2023-04-24T04:15:41;11.27;;;8.75;;
57465;SDS011;67033;44.984;20.068;2023-04-24T04:18:07;13.38;;;10.68;;
57465;SDS011;67033;44.984;20.068;2023-04-24T04:20:33;13.43;;;9.68;;
57465;SDS011;67033;44.984;20.068;2023-04-24T04:22:59;11.55;;;9.45;;
57465;SDS011;67033;44.984;20.068;2023-04-24T04:25:26;12.35;;;10.50;;
57465;SDS011;67033;44.984;20.068;2023-04-24T04:27:52;15.45;;;10.57;;
57465;SDS011;67033;44.984;20.068;2023-04-24T04:30:18;15.18;;;9.10;;
57465;SDS011;67033;44.984;20.068;2023-04-24T04:32:46;17.35;;;9.82;;
57465;SDS011;67033;44.984;20.068;2023-04-24T04:35:12;10.27;;;8.93;;
57465;SDS011;67033;44.984;20.068;2023-04-24T04:37:38;11.60;;;9.57;;
57465;SDS011;67033;44.984;20.068;2023-04-24T04:40:05;16.63;;;9.05;;
57465;SDS011;67033;44.984;20.068;2023-04-24T04:42:32;10.80;;;8.32;;
57465;SDS011;67033;44.984;20.068;2023-04-24T04:45:05;10.65;;;8.18;;
57465;SDS011;67033;44.984;20.068;2023-04-24T04:47:33;9.33;;;7.20;;
57465;SDS011;67033;44.984;20.068;2023-04-24T04:49:59;8.90;;;8.00;;
57465;SDS011;67033;44.984;20.068;2023-04-24T04:52:26;10.82;;;7.68;;
57465;SDS011;67033;44.984;20.068;2023-04-24T04:54:52;9.00;;;7.57;;
57465;SDS011;67033;44.984;20.068;2023-04-24T04:57:18;12.60;;;7.43;;
57465;SDS011;67033;44.984;20.068;2023-04-24T04:59:45;13.23;;;7.20;;
57465;SDS011;67033;44.984;20.068;2023-04-24T05:02:11;7.75;;;6.88;;
57465;SDS011;67033;44.984;20.068;2023-04-24T05:04:38;10.05;;;6.78;;
57465;SDS011;67033;44.984;20.068;2023-04-24T05:07:04;15.93;;;6.80;;
57465;SDS011;67033;44.984;20.068;2023-04-24T05:09:30;10.60;;;6.85;;
57465;SDS011;67033;44.984;20.068;2023-04-24T05:11:56;11.68;;;7.18;;
57465;SDS011;67033;44.984;20.068;2023-04-24T05:14:22;16.75;;;7.55;;
57465;SDS011;67033;44.984;20.068;2023-04-24T05:16:49;14.35;;;7.82;;
57465;SDS011;67033;44.984;20.068;2023-04-24T05:19:15;13.85;;;7.63;;
57465;SDS011;67033;44.984;20.068;2023-04-24T05:21:41;13.02;;;7.25;;
57465;SDS011;67033;44.984;20.068;2023-04-24T05:24:07;10.65;;;7.32;;
57465;SDS011;67033;44.984;20.068;2023-04-24T05:26:33;13.73;;;7.82;;
57465;SDS011;67033;44.984;20.068;2023-04-24T05:29:01;12.63;;;7.43;;
57465;SDS011;67033;44.984;20.068;2023-04-24T05:31:27;18.35;;;8.18;;
57465;SDS011;67033;44.984;20.068;2023-04-24T05:33:53;12.00;;;7.10;;
57465;SDS011;67033;44.984;20.068;2023-04-24T05:36:19;12.60;;;7.45;;
57465;SDS011;67033;44.984;20.068;2023-04-24T05:38:45;16.02;;;7.22;;
57465;SDS011;67033;44.984;20.068;2023-04-24T05:41:11;11.40;;;7.35;;
57465;SDS011;67033;44.984;20.068;2023-04-24T05:43:37;18.40;;;6.90;;
57465;SDS011;67033;44.984;20.068;2023-04-24T05:46:02;15.95;;;7.75;;
57465;SDS011;67033;44.984;20.068;2023-04-24T05:48:29;13.10;;;6.57;;
57465;SDS011;67033;44.984;20.068;2023-04-24T05:50:55;12.43;;;6.88;;
57465;SDS011;67033;44.984;20.068;2023-04-24T05:53:21;16.50;;;6.25;;
57465;SDS011;67033;44.984;20.068;2023-04-24T05:55:47;13.43;;;6.90;;
57465;SDS011;67033;44.984;20.068;2023-04-24T05:58:12;10.90;;;6.63;;
57465;SDS011;67033;44.984;20.068;2023-04-24T06:00:39;11.60;;;6.03;;
57465;SDS011;67033;44.984;20.068;2023-04-24T06:03:07;9.57;;;6.80;;
57465;SDS011;67033;44.984;20.068;2023-04-24T06:05:33;17.70;;;6.05;;
57465;SDS011;67033;44.984;20.068;2023-04-24T06:08:00;13.60;;;5.55;;
57465;SDS011;67033;44.984;20.068;2023-04-24T06:10:26;13.52;;;5.97;;
57465;SDS011;67033;44.984;20.068;2023-04-24T06:12:52;11.73;;;6.28;;
57465;SDS011;67033;44.984;20.068;2023-04-24T06:15:21;14.07;;;6.00;;
57465;SDS011;67033;44.984;20.068;2023-04-24T06:17:47;9.90;;;6.68;;
57465;SDS011;67033;44.984;20.068;2023-04-24T06:20:13;11.40;;;6.03;;
57465;SDS011;67033;44.984;20.068;2023-04-24T06:22:39;14.45;;;5.65;;
57465;SDS011;67033;44.984;20.068;2023-04-24T06:25:05;10.50;;;6.13;;
57465;SDS011;67033;44.984;20.068;2023-04-24T06:27:32;13.43;;;6.25;;
57465;SDS011;67033;44.984;20.068;2023-04-24T06:29:58;6.28;;;5.65;;
57465;SDS011;67033;44.984;20.068;2023-04-24T06:32:24;10.77;;;5.50;;
57465;SDS011;67033;44.984;20.068;2023-04-24T06:34:53;9.18;;;5.63;;
57465;SDS011;67033;44.984;20.068;2023-04-24T06:37:19;12.23;;;6.60;;
57465;SDS011;67033;44.984;20.068;2023-04-24T06:39:46;10.82;;;5.82;;
57465;SDS011;67033;44.984;20.068;2023-04-24T06:42:12;9.80;;;6.25;;
57465;SDS011;67033;44.984;20.068;2023-04-24T06:44:38;25.08;;;6.90;;
57465;SDS011;67033;44.984;20.068;2023-04-24T06:47:09;16.50;;;7.88;;
57465;SDS011;67033;44.984;20.068;2023-04-24T06:49:35;10.10;;;7.00;;
57465;SDS011;67033;44.984;20.068;2023-04-24T06:52:02;11.75;;;7.63;;
57465;SDS011;67033;44.984;20.068;2023-04-24T06:54:28;18.95;;;6.63;;
57465;SDS011;67033;44.984;20.068;2023-04-24T06:56:55;11.57;;;6.63;;
57465;SDS011;67033;44.984;20.068;2023-04-24T06:59:23;11.32;;;7.03;;
57465;SDS011;67033;44.984;20.068;2023-04-24T07:01:49;8.85;;;6.50;;
57465;SDS011;67033;44.984;20.068;2023-04-24T07:04:16;9.35;;;5.88;;
57465;SDS011;67033;44.984;20.068;2023-04-24T07:06:42;7.95;;;6.57;;
57465;SDS011;67033;44.984;20.068;2023-04-24T07:09:10;13.18;;;6.07;;
57465;SDS011;67033;44.984;20.068;2023-04-24T07:11:38;9.30;;;6.70;;
57465;SDS011;67033;44.984;20.068;2023-04-24T07:14:06;11.35;;;6.93;;
57465;SDS011;67033;44.984;20.068;2023-04-24T07:16:32;10.35;;;5.82;;
57465;SDS011;67033;44.984;20.068;2023-04-24T07:18:58;11.85;;;6.50;;
57465;SDS011;67033;44.984;20.068;2023-04-24T07:21:24;9.13;;;6.90;;
57465;SDS011;67033;44.984;20.068;2023-04-24T07:23:50;13.13;;;6.20;;
57465;SDS011;67033;44.984;20.068;2023-04-24T07:26:16;20.58;;;6.57;;
57465;SDS011;67033;44.984;20.068;2023-04-24T07:28:43;11.25;;;6.40;;
57465;SDS011;67033;44.984;20.068;2023-04-24T07:31:10;11.45;;;7.18;;
57465;SDS011;67033;44.984;20.068;2023-04-24T07:33:36;14.20;;;6.97;;
57465;SDS011;67033;44.984;20.068;2023-04-24T07:36:02;9.82;;;6.03;;
57465;SDS011;67033;44.984;20.068;2023-04-24T07:38:31;13.32;;;6.80;;
57465;SDS011;67033;44.984;20.068;2023-04-24T07:40:57;13.05;;;7.32;;
57465;SDS011;67033;44.984;20.068;2023-04-24T07:43:23;8.55;;;6.32;;
57465;SDS011;67033;44.984;20.068;2023-04-24T07:45:49;9.20;;;6.65;;
57465;SDS011;67033;44.984;20.068;2023-04-24T07:48:16;12.27;;;6.65;;
57465;SDS011;67033;44.984;20.068;2023-04-24T07:50:43;11.70;;;7.63;;
57465;SDS011;67033;44.984;20.068;2023-04-24T07:53:09;10.18;;;7.43;;
57465;SDS011;67033;44.984;20.068;2023-04-24T07:55:36;12.10;;;7.70;;
57465;SDS011;67033;44.984;20.068;2023-04-24T07:58:02;11.93;;;8.10;;
57465;SDS011;67033;44.984;20.068;2023-04-24T08:00:27;12.13;;;8.30;;
57465;SDS011;67033;44.984;20.068;2023-04-24T08:02:53;9.73;;;8.18;;
57465;SDS011;67033;44.984;20.068;2023-04-24T08:05:19;12.25;;;8.63;;
57465;SDS011;67033;44.984;20.068;2023-04-24T08:07:45;17.63;;;8.77;;
57465;SDS011;67033;44.984;20.068;2023-04-24T08:10:14;11.82;;;8.60;;
57465;SDS011;67033;44.984;20.068;2023-04-24T08:12:40;10.57;;;8.73;;
57465;SDS011;67033;44.984;20.068;2023-04-24T08:15:06;12.52;;;8.93;;
57465;SDS011;67033;44.984;20.068;2023-04-24T08:17:33;12.65;;;8.57;;
57465;SDS011;67033;44.984;20.068;2023-04-24T08:20:01;14.02;;;8.10;;
57465;SDS011;67033;44.984;20.068;2023-04-24T08:22:29;15.50;;;8.25;;
57465;SDS011;67033;44.984;20.068;2023-04-24T08:24:55;24.17;;;9.30;;
57465;SDS011;67033;44.984;20.068;2023-04-24T08:27:22;19.15;;;7.95;;
57465;SDS011;67033;44.984;20.068;2023-04-24T08:29:49;10.35;;;7.50;;
57465;SDS011;67033;44.984;20.068;2023-04-24T08:32:15;12.20;;;7.38;;
57465;SDS011;67033;44.984;20.068;2023-04-24T08:34:42;21.95;;;12.68;;
57465;SDS011;67033;44.984;20.068;2023-04-24T08:37:07;17.90;;;7.72;;
57465;SDS011;67033;44.984;20.068;2023-04-24T08:39:33;10.38;;;7.63;;
57465;SDS011;67033;44.984;20.068;2023-04-24T08:41:59;11.68;;;7.35;;
57465;SDS011;67033;44.984;20.068;2023-04-24T08:44:33;16.67;;;7.30;;
57465;SDS011;67033;44.984;20.068;2023-04-24T08:47:04;12.27;;;6.03;;
57465;SDS011;67033;44.984;20.068;2023-04-24T08:49:30;9.18;;;6.15;;
57465;SDS011;67033;44.984;20.068;2023-04-24T08:51:56;9.70;;;6.40;;
57465;SDS011;67033;44.984;20.068;2023-04-24T08:54:22;8.43;;;6.40;;
57465;SDS011;67033;44.984;20.068;2023-04-24T08:56:50;9.55;;;6.28;;
57465;SDS011;67033;44.984;20.068;2023-04-24T08:59:18;9.70;;;5.60;;
57465;SDS011;67033;44.984;20.068;2023-04-24T09:01:46;11.85;;;6.30;;
57465;SDS011;67033;44.984;20.068;2023-04-24T09:04:16;8.48;;;6.30;;
57465;SDS011;67033;44.984;20.068;2023-04-24T09:06:47;13.45;;;6.95;;
57465;SDS011;67033;44.984;20.068;2023-04-24T09:09:14;10.60;;;5.47;;
57465;SDS011;67033;44.984;20.068;2023-04-24T09:11:43;7.55;;;4.90;;
57465;SDS011;67033;44.984;20.068;2023-04-24T09:14:10;14.38;;;6.05;;
57465;SDS011;67033;44.984;20.068;2023-04-24T09:16:36;13.43;;;6.22;;
57465;SDS011;67033;44.984;20.068;2023-04-24T09:19:02;9.98;;;5.00;;
57465;SDS011;67033;44.984;20.068;2023-04-24T09:21:34;11.43;;;5.65;;
57465;SDS011;67033;44.984;20.068;2023-04-24T09:24:02;9.18;;;5.28;;
57465;SDS011;67033;44.984;20.068;2023-04-24T09:26:39;10.93;;;5.60;;
57465;SDS011;67033;44.984;20.068;2023-04-24T09:29:05;10.20;;;5.57;;
57465;SDS011;67033;44.984;20.068;2023-04-24T09:31:31;9.98;;;6.10;;
57465;SDS011;67033;44.984;20.068;2023-04-24T09:34:01;9.50;;;5.28;;
57465;SDS011;67033;44.984;20.068;2023-04-24T09:36:34;13.90;;;5.63;;
57465;SDS011;67033;44.984;20.068;2023-04-24T09:39:06;13.18;;;5.88;;
57465;SDS011;67033;44.984;20.068;2023-04-24T09:41:45;7.53;;;5.45;;
57465;SDS011;67033;44.984;20.068;2023-04-24T09:44:19;10.93;;;6.28;;
57465;SDS011;67033;44.984;20.068;2023-04-24T09:46:50;9.93;;;5.82;;
57465;SDS011;67033;44.984;20.068;2023-04-24T09:51:50;11.25;;;6.70;;
57465;SDS011;67033;44.984;20.068;2023-04-24T09:54:17;7.20;;;6.35;;
57465;SDS011;67033;44.984;20.068;2023-04-24T09:56:49;10.20;;;6.22;;
57465;SDS011;67033;44.984;20.068;2023-04-24T09:59:15;8.00;;;6.32;;
57465;SDS011;67033;44.984;20.068;2023-04-24T10:01:42;13.65;;;7.00;;
57465;SDS011;67033;44.984;20.068;2023-04-24T10:04:20;9.63;;;6.05;;
57465;SDS011;67033;44.984;20.068;2023-04-24T10:06:49;10.88;;;6.25;;
57465;SDS011;67033;44.984;20.068;2023-04-24T10:09:18;7.53;;;5.70;;
57465;SDS011;67033;44.984;20.068;2023-04-24T10:11:47;10.88;;;5.82;;
57465;SDS011;67033;44.984;20.068;2023-04-24T10:14:15;12.10;;;5.70;;
57465;SDS011;67033;44.984;20.068;2023-04-24T10:16:43;6.70;;;5.93;;
57465;SDS011;67033;44.984;20.068;2023-04-24T10:19:09;9.25;;;5.25;;
57465;SDS011;67033;44.984;20.068;2023-04-24T10:21:38;6.53;;;5.78;;
57465;SDS011;67033;44.984;20.068;2023-04-24T10:24:15;14.20;;;6.55;;
57465;SDS011;67033;44.984;20.068;2023-04-24T10:26:42;12.75;;;6.80;;
57465;SDS011;67033;44.984;20.068;2023-04-24T10:29:14;12.65;;;6.50;;
57465;SDS011;67033;44.984;20.068;2023-04-24T10:31:42;11.75;;;7.63;;
57465;SDS011;67033;44.984;20.068;2023-04-24T10:34:11;16.57;;;8.23;;
57465;SDS011;67033;44.984;20.068;2023-04-24T10:36:38;7.70;;;4.95;;
57465;SDS011;67033;44.984;20.068;2023-04-24T10:39:08;14.88;;;7.15;;
57465;SDS011;67033;44.984;20.068;2023-04-24T10:41:37;6.97;;;5.50;;
57465;SDS011;67033;44.984;20.068;2023-04-24T10:44:13;13.60;;;7.15;;
57465;SDS011;67033;44.984;20.068;2023-04-24T10:46:43;7.10;;;5.53;;
57465;SDS011;67033;44.984;20.068;2023-04-24T10:49:11;15.27;;;5.93;;
57465;SDS011;67033;44.984;20.068;2023-04-24T10:51:52;12.90;;;5.60;;
57465;SDS011;67033;44.984;20.068;2023-04-24T10:59:47;8.68;;;3.75;;
57465;SDS011;67033;44.984;20.068;2023-04-24T11:02:15;4.93;;;3.65;;
57465;SDS011;67033;44.984;20.068;2023-04-24T11:04:41;6.97;;;4.15;;
57465;SDS011;67033;44.984;20.068;2023-04-24T11:07:10;8.23;;;4.80;;
57465;SDS011;67033;44.984;20.068;2023-04-24T11:09:37;6.93;;;4.90;;
57465;SDS011;67033;44.984;20.068;2023-04-24T11:12:09;8.03;;;4.90;;
57465;SDS011;67033;44.984;20.068;2023-04-24T11:17:53;7.10;;;4.22;;
57465;SDS011;67033;44.984;20.068;2023-04-24T11:20:16;10.27;;;3.78;;
57465;SDS011;67033;44.984;20.068;2023-04-24T11:22:42;7.75;;;4.43;;
57465;SDS011;67033;44.984;20.068;2023-04-24T11:25:09;12.77;;;4.47;;
57465;SDS011;67033;44.984;20.068;2023-04-24T11:27:40;10.00;;;4.63;;
57465;SDS011;67033;44.984;20.068;2023-04-24T11:30:07;6.68;;;4.20;;
57465;SDS011;67033;44.984;20.068;2023-04-24T11:32:36;4.68;;;3.55;;
57465;SDS011;67033;44.984;20.068;2023-04-24T11:37:36;8.10;;;4.75;;
57465;SDS011;67033;44.984;20.068;2023-04-24T11:40:04;9.27;;;3.60;;
57465;SDS011;67033;44.984;20.068;2023-04-24T11:42:35;5.78;;;3.60;;
57465;SDS011;67033;44.984;20.068;2023-04-24T11:45:12;3.97;;;3.53;;
57465;SDS011;67033;44.984;20.068;2023-04-24T11:47:39;10.63;;;4.15;;
57465;SDS011;67033;44.984;20.068;2023-04-24T11:50:07;8.43;;;4.20;;
57465;SDS011;67033;44.984;20.068;2023-04-24T11:52:41;7.78;;;4.07;;
57465;SDS011;67033;44.984;20.068;2023-04-24T11:55:29;11.10;;;4.35;;
57465;SDS011;67033;44.984;20.068;2023-04-24T11:57:56;9.73;;;5.05;;
57465;SDS011;67033;44.984;20.068;2023-04-24T12:00:24;5.68;;;3.92;;
57465;SDS011;67033;44.984;20.068;2023-04-24T12:03:02;7.35;;;4.97;;
57465;SDS011;67033;44.984;20.068;2023-04-24T12:05:30;5.50;;;3.45;;
57465;SDS011;67033;44.984;20.068;2023-04-24T12:07:56;4.50;;;2.85;;
57465;SDS011;67033;44.984;20.068;2023-04-24T12:10:29;4.47;;;3.13;;
57465;SDS011;67033;44.984;20.068;2023-04-24T12:12:56;12.05;;;4.05;;
57465;SDS011;67033;44.984;20.068;2023-04-24T12:15:23;7.45;;;3.58;;
57465;SDS011;67033;44.984;20.068;2023-04-24T12:17:53;5.45;;;3.40;;
57465;SDS011;67033;44.984;20.068;2023-04-24T12:20:29;7.88;;;3.58;;
57465;SDS011;67033;44.984;20.068;2023-04-24T12:22:57;6.72;;;2.83;;
57465;SDS011;67033;44.984;20.068;2023-04-24T12:25:24;10.65;;;3.90;;
57465;SDS011;67033;44.984;20.068;2023-04-24T12:28:14;6.15;;;4.07;;
57465;SDS011;67033;44.984;20.068;2023-04-24T12:30:43;9.88;;;4.00;;
57465;SDS011;67033;44.984;20.068;2023-04-24T12:33:17;4.15;;;3.17;;
57465;SDS011;67033;44.984;20.068;2023-04-24T12:35:43;4.13;;;2.85;;
57465;SDS011;67033;44.984;20.068;2023-04-24T12:38:11;5.13;;;3.42;;
57465;SDS011;67033;44.984;20.068;2023-04-24T12:40:39;6.27;;;3.50;;
57465;SDS011;67033;44.984;20.068;2023-04-24T12:43:16;5.30;;;3.47;;
57465;SDS011;67033;44.984;20.068;2023-04-24T12:45:43;3.97;;;2.92;;
57465;SDS011;67033;44.984;20.068;2023-04-24T12:48:12;8.50;;;3.25;;
57465;SDS011;67033;44.984;20.068;2023-04-24T12:50:41;6.45;;;3.42;;
57465;SDS011;67033;44.984;20.068;2023-04-24T12:53:08;4.90;;;3.53;;
57465;SDS011;67033;44.984;20.068;2023-04-24T12:55:34;10.90;;;5.20;;
57465;SDS011;67033;44.984;20.068;2023-04-24T12:58:00;6.85;;;3.92;;
57465;SDS011;67033;44.984;20.068;2023-04-24T13:00:28;7.65;;;3.53;;
57465;SDS011;67033;44.984;20.068;2023-04-24T13:02:54;7.03;;;3.45;;
57465;SDS011;67033;44.984;20.068;2023-04-24T13:05:20;10.70;;;4.43;;
57465;SDS011;67033;44.984;20.068;2023-04-24T13:07:45;10.00;;;3.88;;
57465;SDS011;67033;44.984;20.068;2023-04-24T13:10:11;7.70;;;3.88;;
57465;SDS011;67033;44.984;20.068;2023-04-24T13:12:38;6.63;;;3.97;;
57465;SDS011;67033;44.984;20.068;2023-04-24T13:15:05;5.80;;;4.18;;
57465;SDS011;67033;44.984;20.068;2023-04-24T13:17:31;7.07;;;4.00;;
57465;SDS011;67033;44.984;20.068;2023-04-24T13:19:58;9.52;;;3.53;;
57465;SDS011;67033;44.984;20.068;2023-04-24T13:22:24;6.72;;;3.13;;
57465;SDS011;67033;44.984;20.068;2023-04-24T13:24:50;9.05;;;4.18;;
57465;SDS011;67033;44.984;20.068;2023-04-24T13:27:16;7.43;;;4.05;;
57465;SDS011;67033;44.984;20.068;2023-04-24T13:29:42;4.18;;;3.40;;
57465;SDS011;67033;44.984;20.068;2023-04-24T13:32:08;5.28;;;3.85;;
57465;SDS011;67033;44.984;20.068;2023-04-24T13:34:34;6.13;;;4.00;;
57465;SDS011;67033;44.984;20.068;2023-04-24T13:37:00;12.52;;;6.47;;
57465;SDS011;67033;44.984;20.068;2023-04-24T13:39:27;12.35;;;7.18;;
57465;SDS011;67033;44.984;20.068;2023-04-24T13:41:53;13.48;;;7.65;;
57465;SDS011;67033;44.984;20.068;2023-04-24T13:44:19;17.40;;;7.90;;
57465;SDS011;67033;44.984;20.068;2023-04-24T13:46:46;7.30;;;6.28;;
57465;SDS011;67033;44.984;20.068;2023-04-24T13:49:13;11.23;;;6.88;;
57465;SDS011;67033;44.984;20.068;2023-04-24T13:51:40;12.20;;;7.10;;
57465;SDS011;67033;44.984;20.068;2023-04-24T13:54:06;9.15;;;6.50;;
57465;SDS011;67033;44.984;20.068;2023-04-24T13:56:32;12.02;;;7.32;;
57465;SDS011;67033;44.984;20.068;2023-04-24T13:58:58;9.65;;;7.10;;
57465;SDS011;67033;44.984;20.068;2023-04-24T14:01:24;12.88;;;7.55;;
57465;SDS011;67033;44.984;20.068;2023-04-24T14:03:51;11.65;;;7.72;;
57465;SDS011;67033;44.984;20.068;2023-04-24T14:06:18;12.50;;;7.82;;
57465;SDS011;67033;44.984;20.068;2023-04-24T14:08:44;11.30;;;7.78;;
57465;SDS011;67033;44.984;20.068;2023-04-24T14:11:10;11.48;;;7.43;;
57465;SDS011;67033;44.984;20.068;2023-04-24T14:13:37;12.68;;;7.63;;
57465;SDS011;67033;44.984;20.068;2023-04-24T14:16:04;13.05;;;7.35;;
57465;SDS011;67033;44.984;20.068;2023-04-24T14:18:30;24.38;;;12.48;;
57465;SDS011;67033;44.984;20.068;2023-04-24T14:20:56;16.67;;;11.10;;
57465;SDS011;67033;44.984;20.068;2023-04-24T14:23:21;16.52;;;5.50;;
57465;SDS011;67033;44.984;20.068;2023-04-24T14:25:47;6.63;;;4.30;;
57465;SDS011;67033;44.984;20.068;2023-04-24T14:28:16;7.15;;;3.78;;
57465;SDS011;67033;44.984;20.068;2023-04-24T14:30:43;9.82;;;4.03;;
57465;SDS011;67033;44.984;20.068;2023-04-24T14:33:09;7.78;;;3.40;;
57465;SDS011;67033;44.984;20.068;2023-04-24T14:35:35;3.90;;;3.20;;
57465;SDS011;67033;44.984;20.068;2023-04-24T14:38:01;4.82;;;3.30;;
57465;SDS011;67033;44.984;20.068;2023-04-24T14:40:27;6.32;;;3.58;;